sensor_id;sensor_type;location;lat;lon;timestamp;temperature;humidity
2647;DHT22;1333;50.958;6.770;2022-12-24T00:00:42;11.30;99.90
2647;DHT22;1333;50.958;6.770;2022-12-24T00:03:08;11.20;99.90
2647;DHT22;1333;50.958;6.770;2022-12-24T00:05:33;11.10;99.90
2647;DHT22;1333;50.958;6.770;2022-12-24T00:08:01;11.10;99.90
2647;DHT22;1333;50.958;6.770;2022-12-24T00:10:26;11.10;99.90
2647;DHT22;1333;50.958;6.770;2022-12-24T00:12:52;11.00;99.90
2647;DHT22;1333;50.958;6.770;2022-12-24T00:15:17;11.00;99.90
2647;DHT22;1333;50.958;6.770;2022-12-24T00:17:43;11.00;99.90
2647;DHT22;1333;50.958;6.770;2022-12-24T00:20:09;11.00;99.90
2647;DHT22;1333;50.958;6.770;2022-12-24T00:22:34;11.00;99.90
2647;DHT22;1333;50.958;6.770;2022-12-24T00:25:00;10.90;99.90
2647;DHT22;1333;50.958;6.770;2022-12-24T00:27:25;11.00;99.90
2647;DHT22;1333;50.958;6.770;2022-12-24T00:29:51;11.10;99.90
2647;DHT22;1333;50.958;6.770;2022-12-24T00:32:16;11.10;99.90
2647;DHT22;1333;50.958;6.770;2022-12-24T00:34:42;11.20;99.90
2647;DHT22;1333;50.958;6.770;2022-12-24T00:37:07;11.30;99.90
2647;DHT22;1333;50.958;6.770;2022-12-24T00:39:33;11.40;99.90
2647;DHT22;1333;50.958;6.770;2022-12-24T00:41:59;11.50;99.90
2647;DHT22;1333;50.958;6.770;2022-12-24T00:44:24;11.40;99.90
2647;DHT22;1333;50.958;6.770;2022-12-24T00:46:50;11.50;99.90
2647;DHT22;1333;50.958;6.770;2022-12-24T00:49:16;11.50;99.90
2647;DHT22;1333;50.958;6.770;2022-12-24T00:51:41;11.50;99.90
2647;DHT22;1333;50.958;6.770;2022-12-24T00:54:07;11.40;99.90
2647;DHT22;1333;50.958;6.770;2022-12-24T00:56:33;11.40;99.90
2647;DHT22;1333;50.958;6.770;2022-12-24T00:58:59;11.50;99.90
2647;DHT22;1333;50.958;6.770;2022-12-24T01:01:26;11.50;99.90
2647;DHT22;1333;50.958;6.770;2022-12-24T01:03:52;11.60;99.90
2647;DHT22;1333;50.958;6.770;2022-12-24T01:07:01;11.50;99.90
2647;DHT22;1333;50.958;6.770;2022-12-24T01:09:40;11.60;99.90
2647;DHT22;1333;50.958;6.770;2022-12-24T01:12:07;11.60;99.90
2647;DHT22;1333;50.958;6.770;2022-12-24T01:14:45;11.60;99.90
2647;DHT22;1333;50.958;6.770;2022-12-24T01:17:33;11.60;99.90
2647;DHT22;1333;50.958;6.770;2022-12-24T01:21:05;11.60;99.90
2647;DHT22;1333;50.958;6.770;2022-12-24T01:24:24;11.70;99.90
2647;DHT22;1333;50.958;6.770;2022-12-24T01:27:35;11.80;99.90
2647;DHT22;1333;50.958;6.770;2022-12-24T01:30:10;11.70;99.90
2647;DHT22;1333;50.958;6.770;2022-12-24T01:33:48;11.70;99.90
2647;DHT22;1333;50.958;6.770;2022-12-24T01:36:15;11.60;99.90
2647;DHT22;1333;50.958;6.770;2022-12-24T01:38:41;11.60;99.90
2647;DHT22;1333;50.958;6.770;2022-12-24T01:41:10;11.50;99.90
2647;DHT22;1333;50.958;6.770;2022-12-24T01:43:56;11.40;99.90
2647;DHT22;1333;50.958;6.770;2022-12-24T01:46:28;11.30;99.90
2647;DHT22;1333;50.958;6.770;2022-12-24T01:48:58;11.30;99.90
2647;DHT22;1333;50.958;6.770;2022-12-24T01:51:37;11.20;99.90
2647;DHT22;1333;50.958;6.770;2022-12-24T01:54:18;11.20;99.90
2647;DHT22;1333;50.958;6.770;2022-12-24T01:56:48;11.20;99.90
2647;DHT22;1333;50.958;6.770;2022-12-24T01:59:17;11.20;99.90
2647;DHT22;1333;50.958;6.770;2022-12-24T02:01:48;11.20;99.90
2647;DHT22;1333;50.958;6.770;2022-12-24T02:04:37;11.10;99.90
2647;DHT22;1333;50.958;6.770;2022-12-24T02:07:04;11.10;99.90
2647;DHT22;1333;50.958;6.770;2022-12-24T02:09:32;11.10;99.90
2647;DHT22;1333;50.958;6.770;2022-12-24T02:11:58;11.00;99.90
2647;DHT22;1333;50.958;6.770;2022-12-24T02:14:25;11.00;99.90
2647;DHT22;1333;50.958;6.770;2022-12-24T02:22:16;10.90;99.90
2647;DHT22;1333;50.958;6.770;2022-12-24T02:30:41;10.90;99.90
2647;DHT22;1333;50.958;6.770;2022-12-24T02:33:57;10.90;99.90
2647;DHT22;1333;50.958;6.770;2022-12-24T02:36:19;11.00;99.90
2647;DHT22;1333;50.958;6.770;2022-12-24T02:38:51;11.10;99.90
2647;DHT22;1333;50.958;6.770;2022-12-24T02:41:22;11.10;99.90
2647;DHT22;1333;50.958;6.770;2022-12-24T02:43:50;11.20;99.90
2647;DHT22;1333;50.958;6.770;2022-12-24T02:46:26;11.20;99.90
2647;DHT22;1333;50.958;6.770;2022-12-24T02:48:54;11.30;99.90
2647;DHT22;1333;50.958;6.770;2022-12-24T02:51:22;11.40;99.90
2647;DHT22;1333;50.958;6.770;2022-12-24T02:53:49;11.50;99.90
2647;DHT22;1333;50.958;6.770;2022-12-24T02:56:53;11.50;99.90
2647;DHT22;1333;50.958;6.770;2022-12-24T03:05:09;11.60;99.90
2647;DHT22;1333;50.958;6.770;2022-12-24T03:07:58;11.60;99.90
2647;DHT22;1333;50.958;6.770;2022-12-24T03:10:38;11.50;99.90
2647;DHT22;1333;50.958;6.770;2022-12-24T03:13:16;11.60;99.90
2647;DHT22;1333;50.958;6.770;2022-12-24T03:15:45;11.60;99.90
2647;DHT22;1333;50.958;6.770;2022-12-24T03:18:15;11.50;99.90
2647;DHT22;1333;50.958;6.770;2022-12-24T03:20:50;11.50;99.90
2647;DHT22;1333;50.958;6.770;2022-12-24T03:23:20;11.40;99.90
2647;DHT22;1333;50.958;6.770;2022-12-24T03:26:08;11.50;99.90
2647;DHT22;1333;50.958;6.770;2022-12-24T03:28:39;11.40;99.90
2647;DHT22;1333;50.958;6.770;2022-12-24T03:31:06;11.40;99.90
2647;DHT22;1333;50.958;6.770;2022-12-24T03:33:33;11.40;99.90
2647;DHT22;1333;50.958;6.770;2022-12-24T03:35:59;11.30;99.90
2647;DHT22;1333;50.958;6.770;2022-12-24T03:38:24;11.20;99.90
2647;DHT22;1333;50.958;6.770;2022-12-24T03:40:50;11.10;99.90
2647;DHT22;1333;50.958;6.770;2022-12-24T03:43:15;11.10;99.90
2647;DHT22;1333;50.958;6.770;2022-12-24T03:45:41;11.00;99.90
2647;DHT22;1333;50.958;6.770;2022-12-24T03:48:06;10.90;99.90
2647;DHT22;1333;50.958;6.770;2022-12-24T03:50:32;10.90;99.90
2647;DHT22;1333;50.958;6.770;2022-12-24T03:52:58;10.80;99.90
2647;DHT22;1333;50.958;6.770;2022-12-24T03:55:23;10.80;99.90
2647;DHT22;1333;50.958;6.770;2022-12-24T03:57:49;10.80;99.90
2647;DHT22;1333;50.958;6.770;2022-12-24T04:00:15;10.70;99.90
2647;DHT22;1333;50.958;6.770;2022-12-24T04:02:41;10.70;99.90
2647;DHT22;1333;50.958;6.770;2022-12-24T04:05:11;10.70;99.90
2647;DHT22;1333;50.958;6.770;2022-12-24T04:07:37;10.70;99.90
2647;DHT22;1333;50.958;6.770;2022-12-24T04:10:03;10.70;99.90
2647;DHT22;1333;50.958;6.770;2022-12-24T04:12:29;10.70;99.90
2647;DHT22;1333;50.958;6.770;2022-12-24T04:14:54;10.70;99.90
2647;DHT22;1333;50.958;6.770;2022-12-24T04:17:20;10.60;99.90
2647;DHT22;1333;50.958;6.770;2022-12-24T04:19:56;10.60;99.90
2647;DHT22;1333;50.958;6.770;2022-12-24T04:22:30;10.60;99.90
2647;DHT22;1333;50.958;6.770;2022-12-24T04:25:07;10.60;99.90
2647;DHT22;1333;50.958;6.770;2022-12-24T04:27:40;10.70;99.90
2647;DHT22;1333;50.958;6.770;2022-12-24T04:30:30;10.60;99.90
2647;DHT22;1333;50.958;6.770;2022-12-24T04:33:10;10.60;99.90
2647;DHT22;1333;50.958;6.770;2022-12-24T04:35:47;10.70;99.90
2647;DHT22;1333;50.958;6.770;2022-12-24T04:38:13;10.60;99.90
2647;DHT22;1333;50.958;6.770;2022-12-24T04:43:47;10.60;99.90
2647;DHT22;1333;50.958;6.770;2022-12-24T04:46:21;10.50;99.90
2647;DHT22;1333;50.958;6.770;2022-12-24T04:49:17;10.50;99.90
2647;DHT22;1333;50.958;6.770;2022-12-24T04:52:06;10.40;99.90
2647;DHT22;1333;50.958;6.770;2022-12-24T04:55:08;10.40;99.90
2647;DHT22;1333;50.958;6.770;2022-12-24T04:57:51;10.40;99.90
2647;DHT22;1333;50.958;6.770;2022-12-24T05:00:17;10.30;99.90
2647;DHT22;1333;50.958;6.770;2022-12-24T05:03:08;10.30;99.90
2647;DHT22;1333;50.958;6.770;2022-12-24T05:06:00;10.40;99.90
2647;DHT22;1333;50.958;6.770;2022-12-24T05:08:26;10.30;99.90
2647;DHT22;1333;50.958;6.770;2022-12-24T05:10:59;10.30;99.90
2647;DHT22;1333;50.958;6.770;2022-12-24T05:13:25;10.30;99.90
2647;DHT22;1333;50.958;6.770;2022-12-24T05:15:50;10.30;99.90
2647;DHT22;1333;50.958;6.770;2022-12-24T05:18:16;10.30;99.90
2647;DHT22;1333;50.958;6.770;2022-12-24T05:20:42;10.30;99.90
2647;DHT22;1333;50.958;6.770;2022-12-24T05:23:17;10.30;99.90
2647;DHT22;1333;50.958;6.770;2022-12-24T05:26:02;10.40;99.90
2647;DHT22;1333;50.958;6.770;2022-12-24T05:28:48;10.40;99.90
2647;DHT22;1333;50.958;6.770;2022-12-24T05:31:13;10.50;99.90
2647;DHT22;1333;50.958;6.770;2022-12-24T05:33:39;10.50;99.90
2647;DHT22;1333;50.958;6.770;2022-12-24T05:36:05;10.40;99.90
2647;DHT22;1333;50.958;6.770;2022-12-24T05:38:30;10.40;99.90
2647;DHT22;1333;50.958;6.770;2022-12-24T05:40:56;10.30;99.90
2647;DHT22;1333;50.958;6.770;2022-12-24T05:43:21;10.30;99.90
2647;DHT22;1333;50.958;6.770;2022-12-24T05:45:47;10.20;99.90
2647;DHT22;1333;50.958;6.770;2022-12-24T05:48:13;10.20;99.90
2647;DHT22;1333;50.958;6.770;2022-12-24T05:50:39;10.10;99.90
2647;DHT22;1333;50.958;6.770;2022-12-24T05:53:05;10.20;99.90
2647;DHT22;1333;50.958;6.770;2022-12-24T05:55:32;10.20;99.90
2647;DHT22;1333;50.958;6.770;2022-12-24T05:57:57;10.20;99.90
2647;DHT22;1333;50.958;6.770;2022-12-24T06:00:23;10.40;99.90
2647;DHT22;1333;50.958;6.770;2022-12-24T06:02:49;10.40;99.90
2647;DHT22;1333;50.958;6.770;2022-12-24T06:05:14;10.40;99.90
2647;DHT22;1333;50.958;6.770;2022-12-24T06:07:40;10.40;99.90
2647;DHT22;1333;50.958;6.770;2022-12-24T06:10:06;10.30;99.90
2647;DHT22;1333;50.958;6.770;2022-12-24T06:12:32;10.30;99.90
2647;DHT22;1333;50.958;6.770;2022-12-24T06:14:58;10.30;99.90
2647;DHT22;1333;50.958;6.770;2022-12-24T06:17:23;10.30;99.90
2647;DHT22;1333;50.958;6.770;2022-12-24T06:19:49;10.30;99.90
2647;DHT22;1333;50.958;6.770;2022-12-24T06:22:14;10.40;99.90
2647;DHT22;1333;50.958;6.770;2022-12-24T06:24:40;10.40;99.90
2647;DHT22;1333;50.958;6.770;2022-12-24T06:27:05;10.40;99.90
2647;DHT22;1333;50.958;6.770;2022-12-24T06:29:31;10.30;99.90
2647;DHT22;1333;50.958;6.770;2022-12-24T06:31:56;10.40;99.90
2647;DHT22;1333;50.958;6.770;2022-12-24T06:34:22;10.40;99.90
2647;DHT22;1333;50.958;6.770;2022-12-24T06:36:47;10.50;99.90
2647;DHT22;1333;50.958;6.770;2022-12-24T06:39:13;10.40;99.90
2647;DHT22;1333;50.958;6.770;2022-12-24T06:41:38;10.50;99.90
2647;DHT22;1333;50.958;6.770;2022-12-24T06:44:04;10.40;99.90
2647;DHT22;1333;50.958;6.770;2022-12-24T06:46:29;10.40;99.90
2647;DHT22;1333;50.958;6.770;2022-12-24T06:48:55;10.40;99.90
2647;DHT22;1333;50.958;6.770;2022-12-24T06:51:20;10.30;99.90
2647;DHT22;1333;50.958;6.770;2022-12-24T06:53:47;10.40;99.90
2647;DHT22;1333;50.958;6.770;2022-12-24T06:56:15;10.30;99.90
2647;DHT22;1333;50.958;6.770;2022-12-24T06:58:41;10.40;99.90
2647;DHT22;1333;50.958;6.770;2022-12-24T07:01:09;10.40;99.90
2647;DHT22;1333;50.958;6.770;2022-12-24T07:03:35;10.50;99.90
2647;DHT22;1333;50.958;6.770;2022-12-24T07:06:00;10.50;99.90
2647;DHT22;1333;50.958;6.770;2022-12-24T07:08:26;10.50;99.90
2647;DHT22;1333;50.958;6.770;2022-12-24T07:10:52;10.60;99.90
2647;DHT22;1333;50.958;6.770;2022-12-24T07:13:18;10.50;99.90
2647;DHT22;1333;50.958;6.770;2022-12-24T07:15:44;10.60;99.90
2647;DHT22;1333;50.958;6.770;2022-12-24T07:18:10;10.70;99.90
2647;DHT22;1333;50.958;6.770;2022-12-24T07:20:37;10.60;99.90
2647;DHT22;1333;50.958;6.770;2022-12-24T07:23:02;10.60;99.90
2647;DHT22;1333;50.958;6.770;2022-12-24T07:25:28;10.60;99.90
2647;DHT22;1333;50.958;6.770;2022-12-24T07:27:53;10.70;99.90
2647;DHT22;1333;50.958;6.770;2022-12-24T07:30:19;10.70;99.90
2647;DHT22;1333;50.958;6.770;2022-12-24T07:32:44;10.70;99.90
2647;DHT22;1333;50.958;6.770;2022-12-24T07:35:10;10.70;99.90
2647;DHT22;1333;50.958;6.770;2022-12-24T07:37:35;10.70;99.90
2647;DHT22;1333;50.958;6.770;2022-12-24T07:40:01;10.80;99.90
2647;DHT22;1333;50.958;6.770;2022-12-24T07:42:27;10.80;99.90
2647;DHT22;1333;50.958;6.770;2022-12-24T07:44:52;10.90;99.90
2647;DHT22;1333;50.958;6.770;2022-12-24T07:47:18;10.90;99.90
2647;DHT22;1333;50.958;6.770;2022-12-24T07:49:43;10.80;99.90
2647;DHT22;1333;50.958;6.770;2022-12-24T07:52:09;10.90;99.90
2647;DHT22;1333;50.958;6.770;2022-12-24T07:54:34;10.90;99.90
2647;DHT22;1333;50.958;6.770;2022-12-24T07:57:00;10.80;99.90
2647;DHT22;1333;50.958;6.770;2022-12-24T07:59:25;10.80;99.90
2647;DHT22;1333;50.958;6.770;2022-12-24T08:01:51;10.90;99.90
2647;DHT22;1333;50.958;6.770;2022-12-24T08:04:16;10.90;99.90
2647;DHT22;1333;50.958;6.770;2022-12-24T08:06:42;11.00;99.90
2647;DHT22;1333;50.958;6.770;2022-12-24T08:09:07;11.20;99.90
2647;DHT22;1333;50.958;6.770;2022-12-24T08:11:33;11.20;99.90
2647;DHT22;1333;50.958;6.770;2022-12-24T08:13:58;11.40;99.90
2647;DHT22;1333;50.958;6.770;2022-12-24T08:16:24;11.40;99.90
2647;DHT22;1333;50.958;6.770;2022-12-24T08:18:50;11.40;99.90
2647;DHT22;1333;50.958;6.770;2022-12-24T08:21:15;11.60;99.90
2647;DHT22;1333;50.958;6.770;2022-12-24T08:23:41;11.70;99.90
2647;DHT22;1333;50.958;6.770;2022-12-24T08:26:07;11.70;99.90
2647;DHT22;1333;50.958;6.770;2022-12-24T08:28:33;11.70;99.90
2647;DHT22;1333;50.958;6.770;2022-12-24T08:30:59;11.70;99.90
2647;DHT22;1333;50.958;6.770;2022-12-24T08:33:24;11.70;99.90
2647;DHT22;1333;50.958;6.770;2022-12-24T08:35:53;11.80;99.90
2647;DHT22;1333;50.958;6.770;2022-12-24T08:38:20;11.90;99.90
2647;DHT22;1333;50.958;6.770;2022-12-24T08:40:46;12.00;99.90
2647;DHT22;1333;50.958;6.770;2022-12-24T08:43:13;11.90;99.90
2647;DHT22;1333;50.958;6.770;2022-12-24T08:45:38;12.00;99.90
2647;DHT22;1333;50.958;6.770;2022-12-24T08:48:05;11.90;99.90
2647;DHT22;1333;50.958;6.770;2022-12-24T08:50:31;12.00;99.90
2647;DHT22;1333;50.958;6.770;2022-12-24T08:52:57;12.00;99.90
2647;DHT22;1333;50.958;6.770;2022-12-24T08:55:22;12.00;99.90
2647;DHT22;1333;50.958;6.770;2022-12-24T08:57:48;12.00;99.90
2647;DHT22;1333;50.958;6.770;2022-12-24T09:00:14;12.00;99.90
2647;DHT22;1333;50.958;6.770;2022-12-24T09:02:39;11.90;99.90
2647;DHT22;1333;50.958;6.770;2022-12-24T09:05:05;11.80;99.90
2647;DHT22;1333;50.958;6.770;2022-12-24T09:07:30;11.80;99.90
2647;DHT22;1333;50.958;6.770;2022-12-24T09:09:56;11.70;99.90
2647;DHT22;1333;50.958;6.770;2022-12-24T09:12:21;11.70;99.90
2647;DHT22;1333;50.958;6.770;2022-12-24T09:14:50;11.70;99.90
2647;DHT22;1333;50.958;6.770;2022-12-24T09:17:15;11.70;99.90
2647;DHT22;1333;50.958;6.770;2022-12-24T09:19:41;11.70;99.90
2647;DHT22;1333;50.958;6.770;2022-12-24T09:22:06;11.70;99.90
2647;DHT22;1333;50.958;6.770;2022-12-24T09:24:32;11.60;99.90
2647;DHT22;1333;50.958;6.770;2022-12-24T09:26:59;11.70;99.90
2647;DHT22;1333;50.958;6.770;2022-12-24T09:29:26;11.70;99.90
2647;DHT22;1333;50.958;6.770;2022-12-24T09:31:52;11.70;99.90
2647;DHT22;1333;50.958;6.770;2022-12-24T09:34:19;11.80;99.90
2647;DHT22;1333;50.958;6.770;2022-12-24T09:36:45;11.70;99.90
2647;DHT22;1333;50.958;6.770;2022-12-24T09:39:10;11.80;99.90
2647;DHT22;1333;50.958;6.770;2022-12-24T09:44:45;11.90;99.90
2647;DHT22;1333;50.958;6.770;2022-12-24T09:47:23;11.90;99.90
2647;DHT22;1333;50.958;6.770;2022-12-24T09:49:53;12.00;99.90
2647;DHT22;1333;50.958;6.770;2022-12-24T09:52:35;12.00;99.90
2647;DHT22;1333;50.958;6.770;2022-12-24T09:55:25;12.10;99.90
2647;DHT22;1333;50.958;6.770;2022-12-24T09:57:53;12.10;99.90
2647;DHT22;1333;50.958;6.770;2022-12-24T10:00:29;12.10;99.90
2647;DHT22;1333;50.958;6.770;2022-12-24T10:02:55;12.10;99.90
2647;DHT22;1333;50.958;6.770;2022-12-24T10:05:44;12.10;99.90
2647;DHT22;1333;50.958;6.770;2022-12-24T10:11:47;12.00;99.90
2647;DHT22;1333;50.958;6.770;2022-12-24T10:19:43;12.10;99.90
2647;DHT22;1333;50.958;6.770;2022-12-24T10:22:24;12.20;99.90
2647;DHT22;1333;50.958;6.770;2022-12-24T10:25:00;12.20;99.90
2647;DHT22;1333;50.958;6.770;2022-12-24T10:27:39;12.20;99.90
2647;DHT22;1333;50.958;6.770;2022-12-24T10:30:20;12.20;99.90
2647;DHT22;1333;50.958;6.770;2022-12-24T10:32:49;12.40;99.90
2647;DHT22;1333;50.958;6.770;2022-12-24T10:37:43;12.80;99.90
2647;DHT22;1333;50.958;6.770;2022-12-24T10:42:53;13.30;99.90
2647;DHT22;1333;50.958;6.770;2022-12-24T10:45:23;13.40;99.90
2647;DHT22;1333;50.958;6.770;2022-12-24T10:47:54;13.60;99.90
2647;DHT22;1333;50.958;6.770;2022-12-24T10:50:33;13.70;99.90
2647;DHT22;1333;50.958;6.770;2022-12-24T10:53:30;13.90;99.90
2647;DHT22;1333;50.958;6.770;2022-12-24T10:56:01;13.80;99.90
2647;DHT22;1333;50.958;6.770;2022-12-24T10:58:28;13.70;99.90
2647;DHT22;1333;50.958;6.770;2022-12-24T11:00:53;13.50;99.90
2647;DHT22;1333;50.958;6.770;2022-12-24T11:03:28;13.30;99.90
2647;DHT22;1333;50.958;6.770;2022-12-24T11:08:27;13.00;99.90
2647;DHT22;1333;50.958;6.770;2022-12-24T11:11:01;13.10;99.90
2647;DHT22;1333;50.958;6.770;2022-12-24T11:13:39;12.90;99.90
2647;DHT22;1333;50.958;6.770;2022-12-24T11:18:46;13.10;99.90
2647;DHT22;1333;50.958;6.770;2022-12-24T11:21:28;13.10;99.90
2647;DHT22;1333;50.958;6.770;2022-12-24T11:24:04;13.10;99.90
2647;DHT22;1333;50.958;6.770;2022-12-24T11:26:32;13.30;99.90
2647;DHT22;1333;50.958;6.770;2022-12-24T11:31:45;13.80;99.90
2647;DHT22;1333;50.958;6.770;2022-12-24T11:34:28;13.90;99.90
2647;DHT22;1333;50.958;6.770;2022-12-24T11:37:19;13.90;99.90
2647;DHT22;1333;50.958;6.770;2022-12-24T11:39:52;13.70;99.90
2647;DHT22;1333;50.958;6.770;2022-12-24T11:42:35;13.50;99.90
2647;DHT22;1333;50.958;6.770;2022-12-24T11:45:16;13.70;99.90
2647;DHT22;1333;50.958;6.770;2022-12-24T11:47:42;13.70;99.90
2647;DHT22;1333;50.958;6.770;2022-12-24T11:50:26;13.90;99.90
2647;DHT22;1333;50.958;6.770;2022-12-24T11:55:53;14.00;99.90
2647;DHT22;1333;50.958;6.770;2022-12-24T12:01:23;13.90;99.90
2647;DHT22;1333;50.958;6.770;2022-12-24T12:03:53;13.90;99.90
2647;DHT22;1333;50.958;6.770;2022-12-24T12:06:37;13.70;99.90
2647;DHT22;1333;50.958;6.770;2022-12-24T12:09:09;13.60;99.90
2647;DHT22;1333;50.958;6.770;2022-12-24T12:11:38;13.60;99.90
2647;DHT22;1333;50.958;6.770;2022-12-24T12:14:05;13.60;99.90
2647;DHT22;1333;50.958;6.770;2022-12-24T12:16:46;13.80;99.90
2647;DHT22;1333;50.958;6.770;2022-12-24T12:19:27;14.00;99.90
2647;DHT22;1333;50.958;6.770;2022-12-24T12:21:54;13.90;99.90
2647;DHT22;1333;50.958;6.770;2022-12-24T12:24:28;13.90;99.90
2647;DHT22;1333;50.958;6.770;2022-12-24T12:27:09;13.80;99.90
2647;DHT22;1333;50.958;6.770;2022-12-24T12:29:43;13.90;99.90
2647;DHT22;1333;50.958;6.770;2022-12-24T12:32:18;14.00;99.90
2647;DHT22;1333;50.958;6.770;2022-12-24T12:35:13;14.20;99.90
2647;DHT22;1333;50.958;6.770;2022-12-24T12:37:44;14.40;99.90
2647;DHT22;1333;50.958;6.770;2022-12-24T12:40:16;14.50;99.90
2647;DHT22;1333;50.958;6.770;2022-12-24T12:43:03;14.50;99.90
2647;DHT22;1333;50.958;6.770;2022-12-24T12:45:53;14.40;99.90
2647;DHT22;1333;50.958;6.770;2022-12-24T12:56:52;14.60;99.90
2647;DHT22;1333;50.958;6.770;2022-12-24T12:59:39;14.90;99.90
2647;DHT22;1333;50.958;6.770;2022-12-24T13:02:37;14.90;99.90
2647;DHT22;1333;50.958;6.770;2022-12-24T13:10:29;15.70;99.90
2647;DHT22;1333;50.958;6.770;2022-12-24T13:16:10;16.40;99.90
2647;DHT22;1333;50.958;6.770;2022-12-24T13:21:24;18.20;99.90
2647;DHT22;1333;50.958;6.770;2022-12-24T13:23:50;17.90;99.90
2647;DHT22;1333;50.958;6.770;2022-12-24T13:26:28;17.40;99.90
2647;DHT22;1333;50.958;6.770;2022-12-24T13:28:54;16.70;99.90
2647;DHT22;1333;50.958;6.770;2022-12-24T13:33:47;15.70;99.90
2647;DHT22;1333;50.958;6.770;2022-12-24T13:36:18;15.30;99.90
2647;DHT22;1333;50.958;6.770;2022-12-24T13:38:50;15.20;99.90
2647;DHT22;1333;50.958;6.770;2022-12-24T13:52:07;14.90;99.90
2647;DHT22;1333;50.958;6.770;2022-12-24T13:54:59;14.90;99.90
2647;DHT22;1333;50.958;6.770;2022-12-24T14:08:13;14.00;99.90
2647;DHT22;1333;50.958;6.770;2022-12-24T14:10:45;14.10;99.90
2647;DHT22;1333;50.958;6.770;2022-12-24T14:13:51;14.20;99.90
2647;DHT22;1333;50.958;6.770;2022-12-24T14:18:56;13.90;99.90
2647;DHT22;1333;50.958;6.770;2022-12-24T14:21:30;13.80;99.90
2647;DHT22;1333;50.958;6.770;2022-12-24T14:24:00;13.60;99.90
2647;DHT22;1333;50.958;6.770;2022-12-24T14:26:29;13.60;99.90
2647;DHT22;1333;50.958;6.770;2022-12-24T14:29:06;13.40;99.90
2647;DHT22;1333;50.958;6.770;2022-12-24T14:31:52;13.30;99.90
2647;DHT22;1333;50.958;6.770;2022-12-24T14:34:18;13.20;99.90
2647;DHT22;1333;50.958;6.770;2022-12-24T14:36:45;13.00;99.90
2647;DHT22;1333;50.958;6.770;2022-12-24T14:39:30;12.90;99.90
2647;DHT22;1333;50.958;6.770;2022-12-24T14:50:47;12.40;99.90
2647;DHT22;1333;50.958;6.770;2022-12-24T14:53:42;12.30;99.90
2647;DHT22;1333;50.958;6.770;2022-12-24T14:56:20;12.20;99.90
2647;DHT22;1333;50.958;6.770;2022-12-24T14:58:47;12.00;99.90
2647;DHT22;1333;50.958;6.770;2022-12-24T15:01:27;11.90;99.90
2647;DHT22;1333;50.958;6.770;2022-12-24T15:09:21;11.40;99.90
2647;DHT22;1333;50.958;6.770;2022-12-24T15:11:49;11.30;99.90
2647;DHT22;1333;50.958;6.770;2022-12-24T15:14:16;11.30;99.90
2647;DHT22;1333;50.958;6.770;2022-12-24T15:16:52;11.10;99.90
2647;DHT22;1333;50.958;6.770;2022-12-24T15:19:20;11.00;99.90
2647;DHT22;1333;50.958;6.770;2022-12-24T15:21:46;11.00;99.90
2647;DHT22;1333;50.958;6.770;2022-12-24T15:24:31;10.90;99.90
2647;DHT22;1333;50.958;6.770;2022-12-24T15:26:59;10.80;99.90
2647;DHT22;1333;50.958;6.770;2022-12-24T15:29:29;10.80;99.90
2647;DHT22;1333;50.958;6.770;2022-12-24T15:32:01;10.70;99.90
2647;DHT22;1333;50.958;6.770;2022-12-24T15:34:38;10.70;99.90
2647;DHT22;1333;50.958;6.770;2022-12-24T15:37:27;10.70;99.90
2647;DHT22;1333;50.958;6.770;2022-12-24T15:42:26;10.50;99.90
2647;DHT22;1333;50.958;6.770;2022-12-24T15:47:35;10.50;99.90
2647;DHT22;1333;50.958;6.770;2022-12-24T15:50:14;10.50;99.90
2647;DHT22;1333;50.958;6.770;2022-12-24T15:52:41;10.40;99.90
2647;DHT22;1333;50.958;6.770;2022-12-24T15:57:50;10.40;99.90
2647;DHT22;1333;50.958;6.770;2022-12-24T16:00:22;10.40;99.90
2647;DHT22;1333;50.958;6.770;2022-12-24T16:02:48;10.40;99.90
2647;DHT22;1333;50.958;6.770;2022-12-24T16:08:21;10.20;99.90
2647;DHT22;1333;50.958;6.770;2022-12-24T16:16:16;9.90;99.90
2647;DHT22;1333;50.958;6.770;2022-12-24T16:18:55;9.80;99.90
2647;DHT22;1333;50.958;6.770;2022-12-24T16:21:31;9.60;99.90
2647;DHT22;1333;50.958;6.770;2022-12-24T16:24:36;9.50;99.90
2647;DHT22;1333;50.958;6.770;2022-12-24T16:26:55;9.40;99.90
2647;DHT22;1333;50.958;6.770;2022-12-24T16:29:21;9.40;99.90
2647;DHT22;1333;50.958;6.770;2022-12-24T16:31:50;9.30;99.90
2647;DHT22;1333;50.958;6.770;2022-12-24T16:34:17;9.20;99.90
2647;DHT22;1333;50.958;6.770;2022-12-24T16:36:44;9.10;99.90
2647;DHT22;1333;50.958;6.770;2022-12-24T16:39:25;9.00;99.90
2647;DHT22;1333;50.958;6.770;2022-12-24T16:42:00;9.00;99.90
2647;DHT22;1333;50.958;6.770;2022-12-24T16:44:44;8.90;99.90
2647;DHT22;1333;50.958;6.770;2022-12-24T16:47:18;8.90;99.90
2647;DHT22;1333;50.958;6.770;2022-12-24T16:49:44;8.80;99.90
2647;DHT22;1333;50.958;6.770;2022-12-24T16:52:27;8.70;99.90
2647;DHT22;1333;50.958;6.770;2022-12-24T16:54:54;8.70;99.90
2647;DHT22;1333;50.958;6.770;2022-12-24T16:57:20;8.60;99.90
2647;DHT22;1333;50.958;6.770;2022-12-24T16:59:45;8.50;99.90
2647;DHT22;1333;50.958;6.770;2022-12-24T17:02:16;8.40;99.90
2647;DHT22;1333;50.958;6.770;2022-12-24T17:04:43;8.40;99.90
2647;DHT22;1333;50.958;6.770;2022-12-24T17:07:14;8.30;99.90
2647;DHT22;1333;50.958;6.770;2022-12-24T17:09:40;8.20;99.90
2647;DHT22;1333;50.958;6.770;2022-12-24T17:12:06;8.20;99.90
2647;DHT22;1333;50.958;6.770;2022-12-24T17:14:32;8.20;99.90
2647;DHT22;1333;50.958;6.770;2022-12-24T17:16:57;8.20;99.90
2647;DHT22;1333;50.958;6.770;2022-12-24T17:19:23;8.10;99.90
2647;DHT22;1333;50.958;6.770;2022-12-24T17:21:48;8.10;99.90
2647;DHT22;1333;50.958;6.770;2022-12-24T17:24:14;8.00;99.90
2647;DHT22;1333;50.958;6.770;2022-12-24T17:26:40;8.00;99.90
2647;DHT22;1333;50.958;6.770;2022-12-24T17:29:08;8.00;99.90
2647;DHT22;1333;50.958;6.770;2022-12-24T17:31:34;7.90;99.90
2647;DHT22;1333;50.958;6.770;2022-12-24T17:34:02;7.80;99.90
2647;DHT22;1333;50.958;6.770;2022-12-24T17:36:27;7.80;99.90
2647;DHT22;1333;50.958;6.770;2022-12-24T17:38:53;7.70;99.90
2647;DHT22;1333;50.958;6.770;2022-12-24T17:41:19;7.60;99.90
2647;DHT22;1333;50.958;6.770;2022-12-24T17:43:45;7.60;99.90
2647;DHT22;1333;50.958;6.770;2022-12-24T17:46:14;7.50;99.90
2647;DHT22;1333;50.958;6.770;2022-12-24T17:48:41;7.50;99.90
2647;DHT22;1333;50.958;6.770;2022-12-24T17:51:09;7.50;99.90
2647;DHT22;1333;50.958;6.770;2022-12-24T17:53:36;7.50;99.90
2647;DHT22;1333;50.958;6.770;2022-12-24T17:56:02;7.50;99.90
2647;DHT22;1333;50.958;6.770;2022-12-24T17:58:28;7.50;99.90
2647;DHT22;1333;50.958;6.770;2022-12-24T18:00:54;7.50;99.90
2647;DHT22;1333;50.958;6.770;2022-12-24T18:03:20;7.50;99.90
2647;DHT22;1333;50.958;6.770;2022-12-24T18:05:46;7.60;99.90
2647;DHT22;1333;50.958;6.770;2022-12-24T18:08:11;7.60;99.90
2647;DHT22;1333;50.958;6.770;2022-12-24T18:10:37;7.50;99.90
2647;DHT22;1333;50.958;6.770;2022-12-24T18:13:03;7.50;99.90
2647;DHT22;1333;50.958;6.770;2022-12-24T18:15:36;7.50;99.90
2647;DHT22;1333;50.958;6.770;2022-12-24T18:18:03;7.30;99.90
2647;DHT22;1333;50.958;6.770;2022-12-24T18:20:29;7.30;99.90
2647;DHT22;1333;50.958;6.770;2022-12-24T18:22:55;7.30;99.90
2647;DHT22;1333;50.958;6.770;2022-12-24T18:25:21;7.40;99.90
2647;DHT22;1333;50.958;6.770;2022-12-24T18:27:47;7.50;99.90
2647;DHT22;1333;50.958;6.770;2022-12-24T18:30:13;7.60;99.90
2647;DHT22;1333;50.958;6.770;2022-12-24T18:32:39;7.70;99.90
2647;DHT22;1333;50.958;6.770;2022-12-24T18:35:05;7.90;99.90
2647;DHT22;1333;50.958;6.770;2022-12-24T18:37:32;8.00;99.90